Time;durP1;ratioP1;P1;durP2;ratioP2;P2;SDS_P1;SDS_P2;PMS_P1;PMS_P2;Temp;Humidity;BMP_temperature;BMP_pressure;BME280_temperature;BME280_humidity;BME280_pressure;Samples;Min_cycle;Max_cycle;Signal;HPM_P1;HPM_P2
2021/05/01 00:02:22;;;;;;;75.38;42.45;;;9.70;99.90;;;;;;5053317;28;20494;-57
2021/05/01 00:04:48;;;;;;;69.90;41.83;;;9.70;99.90;;;;;;5062233;28;20393;-54
2021/05/01 00:07:13;;;;;;;76.78;44.38;;;9.70;99.90;;;;;;5057499;28;20035;-50
2021/05/01 00:09:39;;;;;;;68.88;40.50;;;9.70;99.90;;;;;;5052645;28;20446;-53
2021/05/01 00:12:05;;;;;;;74.05;45.17;;;9.70;99.90;;;;;;5052645;28;20064;-53
2021/05/01 00:14:30;;;;;;;73.65;43.80;;;9.70;99.90;;;;;;5053290;28;20055;-54
2021/05/01 00:16:56;;;;;;;75.22;44.50;;;9.70;99.90;;;;;;5052935;28;20270;-53
2021/05/01 00:19:22;;;;;;;77.65;44.35;;;9.70;99.90;;;;;;5052532;28;20062;-53
2021/05/01 00:21:47;;;;;;;75.40;43.58;;;9.60;99.90;;;;;;5052638;28;20103;-54
2021/05/01 00:24:13;;;;;;;71.10;42.60;;;9.60;99.90;;;;;;5052745;28;20479;-53
2021/05/01 00:26:40;;;;;;;75.65;44.47;;;9.60;99.90;;;;;;5058309;28;20052;-55
2021/05/01 00:29:06;;;;;;;84.97;46.47;;;9.70;99.90;;;;;;5046679;28;20475;-51
2021/05/01 00:31:34;;;;;;;86.18;47.88;;;9.60;99.90;;;;;;5052451;28;20036;-52
2021/05/01 00:34:00;;;;;;;83.28;45.38;;;9.60;99.90;;;;;;5052821;28;20167;-54
2021/05/01 00:36:26;;;;;;;86.93;48.08;;;9.40;99.90;;;;;;5052301;28;20104;-52
2021/05/01 00:38:51;;;;;;;88.32;46.40;;;9.20;99.90;;;;;;5052171;28;20403;-55
2021/05/01 00:41:17;;;;;;;83.90;48.33;;;9.20;99.90;;;;;;5051457;28;20402;-53
2021/05/01 00:43:42;;;;;;;89.50;49.08;;;9.20;99.90;;;;;;5052758;28;20032;-56
2021/05/01 00:46:09;;;;;;;81.28;46.20;;;9.20;99.90;;;;;;5052646;28;20033;-52
2021/05/01 00:48:35;;;;;;;77.22;45.42;;;9.20;99.90;;;;;;5052462;28;20061;-55
2021/05/01 00:51:01;;;;;;;76.32;43.22;;;9.20;99.90;;;;;;5051728;28;20110;-54
2021/05/01 00:53:27;;;;;;;78.45;44.25;;;9.20;99.90;;;;;;5056164;28;20070;-53
2021/05/01 00:55:53;;;;;;;80.90;44.88;;;9.30;99.90;;;;;;5055987;28;20668;-50
2021/05/01 00:58:20;;;;;;;80.20;46.25;;;9.20;99.90;;;;;;5052221;28;20029;-51
2021/05/01 01:03:31;;;;;;;76.50;45.72;;;9.20;99.90;;;;;;5052248;28;20360;-52
2021/05/01 01:05:57;;;;;;;82.18;45.83;;;9.10;99.90;;;;;;5051502;28;20025;-52
2021/05/01 01:08:22;;;;;;;87.43;46.60;;;9.10;99.90;;;;;;5051752;28;20569;-51
2021/05/01 01:10:48;;;;;;;77.45;44.55;;;9.00;99.90;;;;;;5051633;28;20372;-56
2021/05/01 01:13:14;;;;;;;78.72;45.92;;;9.00;99.90;;;;;;5051933;28;20025;-53
2021/05/01 01:15:39;;;;;;;76.70;43.65;;;8.90;99.90;;;;;;5050434;28;20028;-56
2021/05/01 01:18:05;;;;;;;81.60;44.65;;;8.90;99.90;;;;;;5051969;28;20021;-54
2021/05/01 01:20:30;;;;;;;81.45;47.10;;;8.90;99.90;;;;;;5050505;28;20035;-50
2021/05/01 01:22:56;;;;;;;85.07;45.65;;;8.90;99.90;;;;;;5033284;28;20670;-53
2021/05/01 01:25:22;;;;;;;85.38;45.92;;;8.80;99.90;;;;;;5051118;28;20499;-54
2021/05/01 01:27:49;;;;;;;81.22;46.33;;;8.80;99.90;;;;;;5051977;28;20025;-50
2021/05/01 01:30:18;;;;;;;87.32;47.72;;;8.80;99.90;;;;;;5051040;28;20426;-52
2021/05/01 01:32:45;;;;;;;88.55;50.30;;;8.70;99.90;;;;;;5044314;28;20398;-54
2021/05/01 01:35:12;;;;;;;85.72;48.17;;;8.70;99.90;;;;;;5051703;28;20043;-51
2021/05/01 01:37:42;;;;;;;88.32;47.60;;;8.60;99.90;;;;;;5051484;28;20017;-51
2021/05/01 01:40:09;;;;;;;85.28;47.13;;;8.60;99.90;;;;;;5051392;28;20024;-53
2021/05/01 01:42:35;;;;;;;90.38;49.55;;;8.50;99.90;;;;;;5050322;28;20036;-54
2021/05/01 01:45:00;;;;;;;83.93;46.63;;;8.50;99.90;;;;;;5051274;28;20104;-55
2021/05/01 01:47:26;;;;;;;90.10;49.08;;;8.60;99.90;;;;;;5050711;28;20543;-51
2021/05/01 01:49:51;;;;;;;90.82;50.03;;;8.50;99.90;;;;;;5046483;28;20398;-53
2021/05/01 01:52:17;;;;;;;90.07;49.13;;;8.40;99.90;;;;;;5050844;28;20431;-54
2021/05/01 01:54:43;;;;;;;90.53;48.75;;;8.40;99.90;;;;;;5050491;28;20391;-51
2021/05/01 01:57:08;;;;;;;91.07;51.65;;;8.30;99.90;;;;;;5050614;28;20095;-53
2021/05/01 01:59:34;;;;;;;91.18;49.60;;;8.20;99.90;;;;;;5049820;28;20123;-53
2021/05/01 02:01:59;;;;;;;98.28;52.75;;;8.10;99.90;;;;;;5097825;23;20134;-59
2021/05/01 02:04:25;;;;;;;90.97;51.80;;;8.00;99.90;;;;;;5103274;28;20012;-58
2021/05/01 02:06:51;;;;;;;98.93;53.25;;;8.00;99.90;;;;;;5105826;28;20035;-57
2021/05/01 02:09:17;;;;;;;105.00;56.85;;;7.80;99.90;;;;;;5110322;28;20495;-57
2021/05/01 02:11:43;;;;;;;118.28;60.25;;;7.40;99.90;;;;;;5108292;28;20481;-57
2021/05/01 02:14:08;;;;;;;112.13;59.88;;;7.20;99.90;;;;;;5097423;28;20145;-58
2021/05/01 02:16:35;;;;;;;119.07;60.10;;;7.00;99.90;;;;;;5093247;28;20523;-58
2021/05/01 02:19:02;;;;;;;117.40;59.25;;;6.90;99.90;;;;;;5111610;28;20030;-60
2021/05/01 02:21:28;;;;;;;121.70;63.65;;;6.90;99.90;;;;;;5091251;28;20444;-59
2021/05/01 02:23:54;;;;;;;123.22;62.47;;;6.90;99.90;;;;;;5102225;28;20107;-57
2021/05/01 02:26:20;;;;;;;129.88;62.55;;;6.80;99.90;;;;;;5093216;28;20032;-58
2021/05/01 02:28:45;;;;;;;134.13;64.25;;;6.80;99.90;;;;;;5092459;28;20040;-58
2021/05/01 02:31:11;;;;;;;137.38;67.05;;;6.70;99.90;;;;;;5100255;28;20055;-58
2021/05/01 02:33:37;;;;;;;132.07;62.95;;;6.60;99.90;;;;;;5109948;28;20027;-59
2021/05/01 02:36:03;;;;;;;145.10;67.07;;;6.60;99.90;;;;;;5095151;28;20028;-58
2021/05/01 02:38:29;;;;;;;137.15;66.40;;;6.60;99.90;;;;;;5094596;28;20538;-58
2021/05/01 02:40:55;;;;;;;131.00;64.13;;;6.60;99.90;;;;;;5094082;28;20028;-56
2021/05/01 02:43:21;;;;;;;142.20;69.00;;;6.60;99.90;;;;;;5092638;28;20018;-55
2021/05/01 02:45:46;;;;;;;135.35;65.28;;;6.70;99.90;;;;;;5087905;28;20066;-55
2021/05/01 02:48:12;;;;;;;131.50;64.43;;;6.60;99.90;;;;;;5094607;28;20363;-57
2021/05/01 02:50:38;;;;;;;132.40;64.90;;;6.40;99.90;;;;;;5092716;28;20035;-57
2021/05/01 02:53:04;;;;;;;139.50;69.65;;;6.40;99.90;;;;;;5089447;28;20081;-55
2021/05/01 02:55:30;;;;;;;124.47;63.70;;;6.40;99.90;;;;;;5085848;28;20036;-56
2021/05/01 02:57:56;;;;;;;130.73;64.60;;;6.40;99.90;;;;;;5093954;28;20027;-57
2021/05/01 03:00:23;;;;;;;127.22;64.28;;;6.50;99.90;;;;;;5085841;28;20150;-56
2021/05/01 03:02:49;;;;;;;130.48;63.30;;;6.60;99.90;;;;;;5080698;28;20028;-56
2021/05/01 03:05:15;;;;;;;125.00;65.45;;;6.70;99.90;;;;;;5089023;28;20080;-55
2021/05/01 03:07:42;;;;;;;127.03;64.35;;;6.80;99.90;;;;;;5103074;28;20085;-56
2021/05/01 03:10:14;;;;;;;127.55;63.72;;;6.80;99.90;;;;;;5103257;28;20551;-57
2021/05/01 03:12:40;;;;;;;143.38;66.38;;;6.90;99.90;;;;;;5091170;28;20032;-55
2021/05/01 03:15:07;;;;;;;124.38;64.22;;;6.90;99.90;;;;;;5105841;28;20023;-55
2021/05/01 03:17:33;;;;;;;126.63;62.85;;;6.90;99.90;;;;;;5108104;28;20034;-58
2021/05/01 03:19:59;;;;;;;122.10;64.03;;;6.90;99.90;;;;;;5096139;28;20024;-55
2021/05/01 03:22:24;;;;;;;129.85;64.97;;;7.00;99.90;;;;;;5102539;28;20031;-56
2021/05/01 03:24:50;;;;;;;130.75;67.28;;;6.90;99.90;;;;;;5104341;28;20434;-55
2021/05/01 03:27:16;;;;;;;132.93;64.82;;;6.90;99.90;;;;;;5107382;28;20034;-55
2021/05/01 03:29:42;;;;;;;133.73;63.63;;;6.90;99.90;;;;;;5102096;28;20039;-58
2021/05/01 03:32:08;;;;;;;138.85;66.38;;;6.80;99.90;;;;;;5090530;28;20572;-58
2021/05/01 03:34:33;;;;;;;137.93;63.15;;;6.80;99.90;;;;;;5091067;28;20028;-58
2021/05/01 03:36:59;;;;;;;128.57;64.28;;;6.80;99.90;;;;;;5110806;28;20020;-58
2021/05/01 03:39:25;;;;;;;127.07;61.95;;;6.80;99.90;;;;;;5094933;28;20059;-57
2021/05/01 03:41:51;;;;;;;128.63;65.15;;;6.90;99.90;;;;;;5090755;28;20032;-58
2021/05/01 03:44:16;;;;;;;123.82;64.75;;;6.90;99.90;;;;;;5095825;28;20019;-57
2021/05/01 03:46:42;;;;;;;118.70;61.10;;;6.90;99.90;;;;;;5098763;28;20050;-58
2021/05/01 03:49:07;;;;;;;123.35;61.67;;;7.00;99.90;;;;;;5104253;28;20111;-57
2021/05/01 03:51:33;;;;;;;112.03;57.53;;;7.10;99.90;;;;;;5090721;28;20351;-57
2021/05/01 03:53:59;;;;;;;122.28;60.90;;;7.10;99.90;;;;;;5088876;28;20058;-59
2021/05/01 03:56:24;;;;;;;127.57;63.58;;;7.10;99.90;;;;;;5088258;28;20542;-58
2021/05/01 03:58:50;;;;;;;122.65;61.25;;;7.10;99.90;;;;;;5091362;28;20032;-58
2021/05/01 04:01:16;;;;;;;126.57;60.58;;;7.20;99.90;;;;;;5090956;28;20112;-56
2021/05/01 04:03:41;;;;;;;120.38;61.17;;;7.20;99.90;;;;;;5093424;28;20476;-57
2021/05/01 04:06:07;;;;;;;125.35;63.05;;;7.30;99.90;;;;;;5089824;28;20089;-58
2021/05/01 04:08:32;;;;;;;130.15;62.33;;;7.30;99.90;;;;;;5090425;28;20046;-54
2021/05/01 04:10:59;;;;;;;119.78;61.47;;;7.30;99.90;;;;;;5091992;28;20534;-57
2021/05/01 04:13:25;;;;;;;120.63;61.70;;;7.40;99.90;;;;;;5091342;28;20451;-59
2021/05/01 04:15:51;;;;;;;117.65;62.50;;;7.40;99.90;;;;;;5089772;28;20036;-58
2021/05/01 04:18:17;;;;;;;121.13;61.97;;;7.40;99.90;;;;;;5107468;28;20027;-58
2021/05/01 04:20:43;;;;;;;121.60;60.72;;;7.40;99.90;;;;;;5103131;28;20050;-58
2021/05/01 04:23:09;;;;;;;114.15;62.10;;;7.50;99.90;;;;;;5109255;28;20459;-58
2021/05/01 04:25:35;;;;;;;120.28;61.42;;;7.50;99.90;;;;;;5099618;28;20038;-57
2021/05/01 04:28:01;;;;;;;119.28;62.17;;;7.50;99.90;;;;;;5095065;28;20461;-59
2021/05/01 04:30:27;;;;;;;116.35;62.25;;;7.50;99.90;;;;;;5108277;28;20055;-58
2021/05/01 04:32:52;;;;;;;110.82;56.95;;;7.50;99.90;;;;;;5092326;28;20024;-58
2021/05/01 04:35:18;;;;;;;116.00;60.15;;;7.50;99.90;;;;;;5090182;28;20024;-58
2021/05/01 04:37:43;;;;;;;125.97;62.22;;;7.60;99.90;;;;;;5094538;28;20388;-57
2021/05/01 04:40:10;;;;;;;116.75;60.30;;;7.50;99.90;;;;;;5088072;28;20020;-58
2021/05/01 04:42:37;;;;;;;121.13;62.25;;;7.60;99.90;;;;;;5097126;28;20078;-60
2021/05/01 04:45:04;;;;;;;113.55;59.45;;;7.60;99.90;;;;;;5094261;28;20395;-56
2021/05/01 04:47:29;;;;;;;110.70;60.85;;;7.70;99.90;;;;;;5113440;28;20372;-55
2021/05/01 04:49:55;;;;;;;106.03;55.63;;;7.70;99.90;;;;;;5111463;28;20030;-57
2021/05/01 04:52:20;;;;;;;106.55;56.90;;;7.70;99.90;;;;;;5107659;28;20422;-57
2021/05/01 04:54:46;;;;;;;108.65;55.20;;;7.80;99.90;;;;;;5091563;28;20099;-57
2021/05/01 04:57:12;;;;;;;111.05;57.38;;;7.70;99.90;;;;;;5095468;28;20024;-56
2021/05/01 04:59:37;;;;;;;113.32;58.08;;;7.70;99.90;;;;;;5110285;28;20036;-57
2021/05/01 05:02:03;;;;;;;109.43;56.38;;;7.70;99.90;;;;;;5098790;28;20122;-57
2021/05/01 05:04:29;;;;;;;118.68;60.03;;;7.70;99.90;;;;;;5092470;28;20161;-58
2021/05/01 05:06:54;;;;;;;113.55;57.60;;;7.80;99.90;;;;;;5093650;28;20039;-56
2021/05/01 05:09:20;;;;;;;116.32;60.10;;;7.80;99.90;;;;;;5094990;28;20028;-57
2021/05/01 05:11:45;;;;;;;113.68;57.28;;;7.80;99.90;;;;;;5092319;28;20043;-57
2021/05/01 05:14:11;;;;;;;117.53;57.60;;;7.80;99.90;;;;;;5092185;28;20028;-54
2021/05/01 05:16:37;;;;;;;121.90;60.42;;;7.80;99.90;;;;;;5092662;28;20043;-55
2021/05/01 05:19:02;;;;;;;118.00;60.42;;;7.80;99.90;;;;;;5093288;28;20096;-58
2021/05/01 05:21:28;;;;;;;116.00;59.97;;;7.80;99.90;;;;;;5091904;28;20082;-58
2021/05/01 05:23:53;;;;;;;124.93;62.60;;;7.80;99.90;;;;;;5094358;28;20049;-57
2021/05/01 05:26:19;;;;;;;124.97;60.10;;;7.80;99.90;;;;;;5098401;28;20058;-58
2021/05/01 05:28:44;;;;;;;120.63;59.25;;;7.80;99.90;;;;;;5110392;28;20042;-58
2021/05/01 05:31:10;;;;;;;122.25;58.08;;;7.80;99.90;;;;;;5111805;28;20110;-55
2021/05/01 05:33:36;;;;;;;122.75;62.33;;;7.80;99.90;;;;;;5112381;28;20022;-58
2021/05/01 05:36:02;;;;;;;139.13;64.88;;;7.80;99.90;;;;;;5098009;28;20020;-58
2021/05/01 05:38:27;;;;;;;132.38;63.10;;;7.80;99.90;;;;;;5093122;28;20132;-58
2021/05/01 05:40:53;;;;;;;151.10;64.95;;;7.80;99.90;;;;;;5105360;28;20019;-58
2021/05/01 05:43:18;;;;;;;157.90;68.90;;;7.70;99.90;;;;;;5090266;28;20474;-56
2021/05/01 05:45:46;;;;;;;149.93;67.80;;;7.80;99.90;;;;;;5102473;28;20088;-59
2021/05/01 05:48:12;;;;;;;136.50;61.03;;;7.80;99.90;;;;;;5094536;28;20107;-58
2021/05/01 05:50:38;;;;;;;145.35;63.28;;;7.80;99.90;;;;;;5091669;28;20040;-59
2021/05/01 05:53:04;;;;;;;134.35;61.85;;;7.80;99.90;;;;;;5111532;28;20088;-59
2021/05/01 05:55:29;;;;;;;140.70;62.67;;;7.80;99.90;;;;;;5102040;28;20016;-58
2021/05/01 05:57:56;;;;;;;129.88;60.58;;;7.90;99.90;;;;;;5091507;28;20027;-58
2021/05/01 06:00:24;;;;;;;149.50;65.07;;;7.90;99.90;;;;;;5096236;28;20020;-57
2021/05/01 06:02:51;;;;;;;132.23;59.47;;;7.90;99.90;;;;;;5100052;28;20092;-58
2021/05/01 06:05:24;;;;;;;122.40;57.88;;;8.00;99.90;;;;;;5095178;28;20047;-58
2021/05/01 06:07:57;;;;;;;130.35;59.58;;;8.00;99.90;;;;;;5092215;28;20023;-58
2021/05/01 06:10:24;;;;;;;116.32;56.53;;;8.00;99.90;;;;;;5091001;28;20058;-58
2021/05/01 06:12:51;;;;;;;117.00;54.10;;;8.10;99.90;;;;;;5105779;28;20108;-58
2021/05/01 06:15:17;;;;;;;120.25;54.05;;;8.20;99.90;;;;;;5105289;28;20043;-59
2021/05/01 06:17:44;;;;;;;108.78;53.45;;;8.20;99.90;;;;;;5111850;28;20058;-58
2021/05/01 06:20:11;;;;;;;82.47;42.28;;;8.20;99.90;;;;;;5107729;28;20507;-57
2021/05/01 06:22:37;;;;;;;81.85;38.80;;;8.30;99.90;;;;;;5111374;28;20027;-58
2021/05/01 06:25:07;;;;;;;63.13;29.45;;;8.40;99.90;;;;;;5087533;28;20396;-58
2021/05/01 06:27:33;;;;;;;59.60;25.77;;;8.40;99.90;;;;;;5089873;28;20725;-58
2021/05/01 06:30:00;;;;;;;53.58;26.27;;;8.50;99.90;;;;;;5092304;28;20086;-58
2021/05/01 06:32:26;;;;;;;43.40;23.27;;;8.50;99.90;;;;;;5094066;28;20109;-58
2021/05/01 06:34:55;;;;;;;54.50;25.40;;;8.60;99.90;;;;;;5093135;28;20169;-57
2021/05/01 06:37:22;;;;;;;79.32;27.83;;;8.50;99.90;;;;;;5094347;28;20020;-58
2021/05/01 06:39:48;;;;;;;51.97;26.08;;;8.60;99.90;;;;;;5090317;28;20027;-58
2021/05/01 06:42:23;;;;;;;52.47;26.38;;;8.70;99.90;;;;;;5090584;28;20040;-56
2021/05/01 06:45:00;;;;;;;42.08;24.33;;;8.80;99.90;;;;;;5088865;28;20058;-57
2021/05/01 06:47:28;;;;;;;48.03;27.98;;;8.80;99.90;;;;;;5085845;28;20040;-55
2021/05/01 06:50:08;;;;;;;56.97;33.80;;;8.90;99.90;;;;;;5089882;28;20028;-57
2021/05/01 06:52:38;;;;;;;54.55;26.80;;;8.90;99.90;;;;;;5089596;28;20425;-57
2021/05/01 06:55:05;;;;;;;47.58;24.70;;;8.80;99.90;;;;;;5092245;28;20016;-58
2021/05/01 06:57:32;;;;;;;58.75;29.05;;;8.80;99.90;;;;;;5086484;28;20039;-58
2021/05/01 06:59:58;;;;;;;45.50;25.85;;;8.70;99.90;;;;;;5092421;28;20024;-56
2021/05/01 07:02:30;;;;;;;57.92;30.83;;;8.70;99.90;;;;;;5085698;28;20081;-57
2021/05/01 07:04:58;;;;;;;58.20;31.52;;;8.80;99.90;;;;;;5093352;28;20040;-57
2021/05/01 07:07:25;;;;;;;58.85;30.63;;;8.90;99.90;;;;;;5100793;28;20118;-57
2021/05/01 07:09:51;;;;;;;60.38;32.45;;;8.90;99.90;;;;;;5087831;28;20406;-58
2021/05/01 07:12:21;;;;;;;50.95;31.23;;;8.80;99.90;;;;;;5092340;28;20393;-58
2021/05/01 07:14:47;;;;;;;64.55;31.17;;;8.80;99.90;;;;;;5087584;28;20035;-57
2021/05/01 07:17:14;;;;;;;65.35;29.85;;;8.90;99.90;;;;;;5091827;28;20428;-58
2021/05/01 07:19:40;;;;;;;49.05;27.98;;;9.00;99.90;;;;;;5087093;28;20060;-58
2021/05/01 07:22:07;;;;;;;58.25;29.52;;;9.00;99.90;;;;;;5093025;28;20028;-59
2021/05/01 07:24:33;;;;;;;49.83;27.52;;;9.10;99.90;;;;;;5095406;28;20032;-58
2021/05/01 07:27:01;;;;;;;53.97;29.58;;;9.10;99.90;;;;;;5087564;28;20023;-57
2021/05/01 07:29:31;;;;;;;58.72;31.20;;;9.20;99.90;;;;;;5096812;28;20330;-57
2021/05/01 07:31:57;;;;;;;53.75;30.30;;;9.20;99.90;;;;;;5087124;28;20020;-58
2021/05/01 07:34:26;;;;;;;54.63;29.60;;;9.20;99.90;;;;;;5088751;28;20366;-56
2021/05/01 07:36:55;;;;;;;58.55;28.33;;;9.20;99.90;;;;;;5090925;28;20103;-58
2021/05/01 07:39:24;;;;;;;55.03;31.83;;;9.30;99.90;;;;;;5090920;28;20046;-58
2021/05/01 07:41:56;;;;;;;48.75;29.15;;;9.30;99.90;;;;;;5090202;28;20512;-58
2021/05/01 07:44:32;;;;;;;50.28;27.65;;;9.20;99.90;;;;;;5093292;28;20119;-57
2021/05/01 07:47:00;;;;;;;46.85;27.77;;;9.20;99.90;;;;;;5095126;28;20557;-57
2021/05/01 07:49:26;;;;;;;48.03;27.45;;;9.20;99.90;;;;;;5087111;28;20114;-58
2021/05/01 07:51:53;;;;;;;53.33;28.33;;;9.30;99.90;;;;;;5093206;28;20414;-59
2021/05/01 07:54:19;;;;;;;51.88;28.65;;;9.30;99.90;;;;;;5090930;28;20445;-59
2021/05/01 07:56:45;;;;;;;52.72;27.20;;;9.30;99.90;;;;;;5102587;28;20069;-59
2021/05/01 07:59:10;;;;;;;40.30;24.88;;;9.40;99.90;;;;;;5094935;28;20098;-57
2021/05/01 08:01:36;;;;;;;42.95;25.73;;;9.50;99.90;;;;;;5121607;22;20055;-50
2021/05/01 08:04:02;;;;;;;39.60;23.70;;;9.60;99.90;;;;;;5113886;28;20034;-50
2021/05/01 08:06:29;;;;;;;40.22;22.88;;;9.70;99.90;;;;;;5101251;28;20024;-51
2021/05/01 08:08:55;;;;;;;41.45;25.33;;;9.70;99.90;;;;;;5105406;28;20428;-51
2021/05/01 08:11:22;;;;;;;45.78;26.60;;;9.80;99.90;;;;;;5102157;28;20032;-50
2021/05/01 08:13:47;;;;;;;43.20;25.58;;;9.80;99.90;;;;;;5084458;28;20081;-51
2021/05/01 08:16:14;;;;;;;40.47;24.27;;;9.90;99.90;;;;;;5081690;28;20107;-50
2021/05/01 08:18:40;;;;;;;44.08;23.70;;;10.00;99.90;;;;;;5077760;28;20028;-51
2021/05/01 08:21:05;;;;;;;39.97;22.60;;;10.10;99.90;;;;;;5087972;28;20405;-49
2021/05/01 08:23:33;;;;;;;35.97;20.48;;;10.20;99.90;;;;;;5067354;28;20069;-53
2021/05/01 08:26:00;;;;;;;33.58;19.67;;;10.30;99.90;;;;;;5089413;28;20024;-53
2021/05/01 08:28:26;;;;;;;35.53;20.88;;;10.40;99.90;;;;;;5091694;28;20032;-50
2021/05/01 08:30:51;;;;;;;37.20;22.45;;;10.50;99.90;;;;;;5081459;28;20453;-50
2021/05/01 08:33:17;;;;;;;39.63;22.67;;;10.50;99.90;;;;;;5083467;28;20025;-52
2021/05/01 08:35:42;;;;;;;42.10;22.27;;;10.50;99.90;;;;;;5086617;28;20108;-50
2021/05/01 08:38:08;;;;;;;41.03;23.45;;;10.60;99.90;;;;;;5086922;28;20055;-53
2021/05/01 08:40:35;;;;;;;36.50;20.25;;;10.80;99.90;;;;;;5078956;28;20035;-52
2021/05/01 08:43:01;;;;;;;39.33;22.17;;;10.80;99.90;;;;;;5089113;28;20082;-52
2021/05/01 08:45:28;;;;;;;35.50;21.35;;;11.00;99.90;;;;;;5079147;28;20443;-50
2021/05/01 08:47:53;;;;;;;34.47;21.02;;;10.90;99.90;;;;;;5079158;28;20059;-51
2021/05/01 08:50:25;;;;;;;36.97;19.90;;;10.80;99.90;;;;;;5080720;28;20478;-51
2021/05/01 08:52:54;;;;;;;34.03;20.75;;;10.70;99.90;;;;;;5080473;28;20075;-52
2021/05/01 08:55:27;;;;;;;39.95;21.05;;;10.60;99.90;;;;;;5080955;28;20016;-50
2021/05/01 08:57:53;;;;;;;43.83;21.40;;;10.20;99.90;;;;;;5082474;28;20028;-51
2021/05/01 09:00:20;;;;;;;33.78;20.52;;;10.40;99.90;;;;;;5084865;28;20262;-49
2021/05/01 09:02:47;;;;;;;40.53;22.30;;;10.70;99.90;;;;;;5087836;28;20028;-50
2021/05/01 09:05:13;;;;;;;40.75;24.58;;;11.00;99.90;;;;;;5086062;28;20027;-51
2021/05/01 09:07:42;;;;;;;40.20;23.45;;;11.30;99.90;;;;;;5087739;28;20479;-49
2021/05/01 09:10:09;;;;;;;43.47;22.80;;;11.40;99.90;;;;;;5081371;28;20044;-49
2021/05/01 09:12:45;;;;;;;38.60;23.83;;;11.30;99.90;;;;;;5076683;28;20132;-53
2021/05/01 09:15:23;;;;;;;40.13;23.25;;;11.30;99.90;;;;;;5086830;28;20044;-50
2021/05/01 09:17:58;;;;;;;44.00;24.27;;;11.10;99.90;;;;;;5078891;28;20021;-51
2021/05/01 09:20:24;;;;;;;45.10;24.48;;;11.10;99.90;;;;;;5080682;28;20036;-52
2021/05/01 09:23:01;;;;;;;42.42;24.50;;;11.20;99.90;;;;;;5079622;28;20028;-53
2021/05/01 09:25:29;;;;;;;38.15;22.48;;;11.10;99.90;;;;;;5076950;28;20033;-52
2021/05/01 09:28:15;;;;;;;47.22;23.02;;;11.30;99.90;;;;;;5081645;28;20020;-50
2021/05/01 09:30:42;;;;;;;37.03;23.15;;;11.40;99.90;;;;;;5080457;28;20032;-53
2021/05/01 09:33:18;;;;;;;39.95;25.95;;;11.60;99.90;;;;;;5081119;28;20407;-49
2021/05/01 09:35:48;;;;;;;44.03;26.88;;;11.80;99.90;;;;;;5084894;28;20024;-53
2021/05/01 09:38:14;;;;;;;39.15;24.27;;;11.60;99.90;;;;;;5083778;28;20409;-49
2021/05/01 09:40:45;;;;;;;37.97;22.10;;;11.70;99.90;;;;;;5086160;28;20024;-51
2021/05/01 09:43:11;;;;;;;42.13;24.58;;;11.80;99.90;;;;;;5085014;28;20489;-52
2021/05/01 09:45:37;;;;;;;40.83;25.63;;;11.60;99.90;;;;;;5080067;28;20028;-51
2021/05/01 09:48:11;;;;;;;50.78;26.23;;;11.80;99.90;;;;;;5076463;28;20567;-51
2021/05/01 09:50:37;;;;;;;43.30;22.38;;;12.00;99.90;;;;;;5080596;28;20114;-49
2021/05/01 09:53:07;;;;;;;39.58;21.33;;;12.30;99.90;;;;;;5082952;28;20281;-49
2021/05/01 09:55:51;;;;;;;34.75;20.85;;;12.20;99.90;;;;;;5079916;28;20029;-50
2021/05/01 09:58:28;;;;;;;30.27;20.30;;;12.00;99.90;;;;;;5075090;28;20094;-52
2021/05/01 10:01:12;;;;;;;31.58;18.40;;;12.00;99.90;;;;;;5076695;28;20025;-50
2021/05/01 10:03:38;;;;;;;32.55;18.95;;;12.10;99.90;;;;;;5080042;28;20114;-51
2021/05/01 10:06:06;;;;;;;36.55;19.55;;;11.70;99.90;;;;;;5078739;28;20036;-50
2021/05/01 10:08:32;;;;;;;31.02;18.83;;;11.90;99.90;;;;;;5072578;28;20093;-50
2021/05/01 10:11:10;;;;;;;30.73;18.75;;;12.10;99.90;;;;;;5079607;28;20024;-52
2021/05/01 10:13:49;;;;;;;31.55;18.63;;;12.40;99.90;;;;;;5073249;28;20028;-50
2021/05/01 10:16:16;;;;;;;31.05;19.98;;;12.90;99.90;;;;;;5081555;28;20028;-53
2021/05/01 10:19:05;;;;;;;31.23;18.67;;;12.80;99.90;;;;;;5057753;28;20483;-50
2021/05/01 10:21:31;;;;;;;25.80;14.73;;;12.80;99.90;;;;;;5076990;28;20190;-50
2021/05/01 10:23:57;;;;;;;29.08;16.38;;;12.80;99.90;;;;;;5080415;28;20099;-51
2021/05/01 10:26:24;;;;;;;30.60;16.58;;;12.80;99.90;;;;;;5078733;28;20387;-51
2021/05/01 10:28:52;;;;;;;29.52;17.80;;;13.10;99.90;;;;;;5083800;28;20016;-53
2021/05/01 10:31:20;;;;;;;31.52;19.88;;;13.40;99.90;;;;;;5075313;28;20411;-50
2021/05/01 10:33:48;;;;;;;28.70;18.02;;;13.00;99.90;;;;;;5077712;28;20459;-53
2021/05/01 10:36:27;;;;;;;40.10;17.05;;;13.60;99.90;;;;;;5077842;28;20024;-52
2021/05/01 10:39:01;;;;;;;25.02;16.42;;;14.20;99.90;;;;;;5076018;28;20074;-52
2021/05/01 10:41:31;;;;;;;24.10;15.35;;;14.00;99.90;;;;;;5078238;28;20386;-53
2021/05/01 10:43:58;;;;;;;27.52;15.80;;;13.70;99.90;;;;;;5079196;28;20044;-54
2021/05/01 10:46:24;;;;;;;26.50;17.30;;;13.20;99.90;;;;;;5077336;28;20111;-53
2021/05/01 10:48:53;;;;;;;32.70;17.83;;;13.30;99.90;;;;;;5086678;28;20020;-54
2021/05/01 10:51:25;;;;;;;32.03;17.60;;;13.60;99.90;;;;;;5085438;28;20105;-53
2021/05/01 10:54:17;;;;;;;24.23;15.10;;;13.80;99.90;;;;;;5080804;28;20498;-54
2021/05/01 10:56:47;;;;;;;26.35;16.52;;;14.00;99.90;;;;;;5081526;28;20032;-53
2021/05/01 10:59:18;;;;;;;27.40;16.75;;;14.20;99.90;;;;;;5080654;28;20024;-53
2021/05/01 11:01:48;;;;;;;26.45;16.65;;;14.10;99.90;;;;;;5084693;28;20123;-53
2021/05/01 11:04:48;;;;;;;30.13;17.27;;;13.90;99.90;;;;;;5080786;28;20405;-55
2021/05/01 11:07:34;;;;;;;28.90;17.45;;;13.70;99.90;;;;;;5042523;28;20050;-54
2021/05/01 11:10:07;;;;;;;30.52;17.35;;;13.90;99.90;;;;;;5077548;28;20028;-57
2021/05/01 11:12:38;;;;;;;29.25;15.23;;;13.90;99.90;;;;;;5083081;28;20174;-56
2021/05/01 11:15:12;;;;;;;25.67;14.95;;;14.10;99.90;;;;;;5083043;28;20497;-55
2021/05/01 11:17:41;;;;;;;27.98;16.13;;;14.20;99.90;;;;;;5082581;28;20036;-55
2021/05/01 11:20:08;;;;;;;23.10;14.73;;;14.20;99.90;;;;;;5086408;28;20028;-55
2021/05/01 11:22:36;;;;;;;23.65;16.27;;;14.50;99.90;;;;;;5076055;28;20042;-55
2021/05/01 11:25:11;;;;;;;23.58;15.45;;;14.80;99.90;;;;;;5080849;28;20385;-54
2021/05/01 11:27:38;;;;;;;29.85;16.73;;;14.50;99.90;;;;;;5084576;28;20085;-55
2021/05/01 11:30:05;;;;;;;29.85;16.58;;;14.00;99.90;;;;;;5079372;28;20031;-58
2021/05/01 11:32:31;;;;;;;31.30;16.92;;;13.70;99.90;;;;;;5084258;28;20055;-56
2021/05/01 11:35:04;;;;;;;22.52;14.45;;;14.00;99.90;;;;;;5079156;28;20481;-57
2021/05/01 11:37:36;;;;;;;23.02;14.93;;;14.50;99.90;;;;;;5075935;28;20027;-57
2021/05/01 11:40:04;;;;;;;18.70;12.10;;;15.00;99.90;;;;;;5077066;28;20032;-56
2021/05/01 11:42:30;;;;;;;20.83;13.25;;;15.30;98.70;;;;;;5082637;28;20035;-53
2021/05/01 11:44:56;;;;;;;26.45;13.70;;;15.70;97.80;;;;;;5080757;28;20021;-56
2021/05/01 11:47:26;;;;;;;17.10;12.32;;;15.50;96.70;;;;;;5079156;28;20893;-54
2021/05/01 11:49:55;;;;;;;18.58;11.32;;;15.50;99.10;;;;;;5085872;28;20039;-55
2021/05/01 11:52:40;;;;;;;21.35;12.38;;;15.80;97.20;;;;;;5080111;28;20043;-55
2021/05/01 11:55:17;;;;;;;18.00;12.23;;;16.00;95.40;;;;;;5073567;28;20035;-53
2021/05/01 11:57:59;;;;;;;20.58;11.95;;;15.90;95.50;;;;;;5073915;28;20031;-54
2021/05/01 12:00:30;;;;;;;20.58;11.93;;;15.80;94.80;;;;;;5077872;28;20093;-55
2021/05/01 12:02:56;;;;;;;25.65;13.50;;;16.20;95.60;;;;;;5081640;28;20442;-53
2021/05/01 12:05:24;;;;;;;26.20;13.90;;;16.00;95.50;;;;;;5075220;28;20465;-56
2021/05/01 12:08:09;;;;;;;20.98;12.75;;;15.80;96.00;;;;;;5076573;28;20378;-54
2021/05/01 12:10:42;;;;;;;15.40;11.10;;;15.40;95.80;;;;;;5079064;28;20123;-57
2021/05/01 12:13:15;;;;;;;18.05;11.60;;;15.60;96.40;;;;;;5070689;28;20043;-55
2021/05/01 12:15:52;;;;;;;19.75;11.38;;;15.90;94.70;;;;;;5076630;28;20048;-56
2021/05/01 12:18:19;;;;;;;19.77;10.25;;;15.90;94.70;;;;;;5078237;28;20525;-56
2021/05/01 12:20:51;;;;;;;21.42;9.73;;;16.30;93.70;;;;;;5083173;28;20048;-56
2021/05/01 12:23:38;;;;;;;17.65;12.07;;;16.10;93.60;;;;;;5079820;28;20097;-56
2021/05/01 12:26:05;;;;;;;13.82;9.23;;;15.70;93.70;;;;;;5082689;28;20063;-55
2021/05/01 12:28:39;;;;;;;16.42;8.30;;;15.40;93.80;;;;;;5078132;28;20048;-55
2021/05/01 12:31:07;;;;;;;11.15;7.32;;;15.20;93.40;;;;;;5073746;28;20032;-56
2021/05/01 12:33:32;;;;;;;17.17;8.50;;;15.20;94.50;;;;;;5078986;28;20100;-55
2021/05/01 12:36:05;;;;;;;17.75;9.20;;;15.40;93.80;;;;;;5078006;28;20115;-53
2021/05/01 12:38:36;;;;;;;12.63;7.05;;;15.60;93.00;;;;;;5079225;28;20025;-53